• Join FlightAware (Why Join?)
  • Login
  • US Flag 
04:57AM EDT


 

Airport Tracker/Info


-or-


 

Live Flight TrackerFlight Track Log ✈ AAL1459 ✈ 10-Apr-2013 ✈ KBOS - KORD

Flight Track Log - Related Links

Times and Time Zones

All times are in EDT time to prevent confusion due to time zone crossing. See the AAL1459 flight status page for this flight to view local times or setup timezone preferences in your user account.

Time Position Orientation Groundspeed Altitude Reporting Facility
EDT Latitude Longitude Course Direction KTS MPH feet Rate Location/Type
05:18PM 42.3660 -70.9570 78° East 168 193 1,500  Level FlightAware
05:18PM 42.3720 -70.9270 75° East 209 241 2,000 1,260 Climbing FlightAware
05:19PM 42.3800 -70.8850 76° East 252 290 2,700 1,860 Climbing FlightAware
05:19PM 42.3850 -70.8600 75° East 265 305 3,400 2,640 Climbing FlightAware
05:20PM 42.3990 -70.8120 68° East 278 320 4,700 2,460 Climbing FlightAware
05:20PM 42.4240 -70.7820 42° Northeast 289 333 5,700 3,000 Climbing FlightAware
05:20PM 42.4420 -70.7710 24° Northeast 267 307 6,700 3,780 Climbing FlightAware
05:21PM 42.4600 -70.7680 North 260 299 7,600 3,420 Climbing FlightAware
05:21PM 42.4870 -70.7790 343° North 229 264 9,000 2,700 Climbing FlightAware
05:22PM 42.5250 -70.8240 319° Northwest 253 291 10,800 1,740 Climbing FlightAware
05:22PM 42.5580 -70.8780 310° West 299 344 11,500 1,860 Climbing FlightAware
05:23PM 42.5960 -70.9460 307° West 305 351 13,500 2,640 Climbing FlightAware
05:24PM 42.6290 -71.0100 305° West 315 362 15,300 2,460 Climbing FlightAware
05:25PM 42.6640 -71.0760 306° West 327 376 16,800 2,280 Climbing FlightAware
05:25PM 42.7060 -71.1500 308° West 340 391 18,600 2,460 Climbing FlightAware
05:26PM 42.7460 -71.2200 308° West 336 387 20,300 1,980 Climbing FlightAware
05:27PM 42.7760 -71.2950 299° West 350 403 21,300 1,920 Climbing FlightAware
05:27PM 42.7930 -71.3920 283° West 352 405 23,100 1,800 Climbing FlightAware
05:28PM 42.8030 -71.4820 279° West 369 425 23,900 1,680 Climbing FlightAware
05:29PM 42.8160 -71.6130 278° West 369 425 25,800 1,740 Climbing FlightAware
05:30PM 42.8280 -71.7150 279° West 378 435 26,800 1,380 Climbing FlightAware
05:30PM 42.8400 -71.8100 280° West 383 441 27,800 1,380 Climbing FlightAware
05:31PM 42.8500 -71.9070 278° West 388 447 28,700 1,320 Climbing FlightAware
05:32PM 42.8620 -72.0170 279° West 393 452 29,700 1,440 Climbing FlightAware
05:32PM 42.8720 -72.1120 278° West 390 449 30,800 1,440 Climbing FlightAware
05:33PM 42.8960 -72.2160 288° West 388 447 31,800 1,320 Climbing FlightAware
05:34PM 42.9200 -72.3110 289° West 388 447 32,700 1,260 Climbing FlightAware
05:35PM 42.9450 -72.4140 288° West 386 444 33,600 1,380 Climbing FlightAware
05:35PM 42.9680 -72.5070 289° West 377 434 34,700 1,380 Climbing FlightAware
05:36PM 42.9880 -72.5910 288° West 371 427 35,500 900 Climbing FlightAware
05:37PM 43.0100 -72.6830 288° West 370 426 36,000 300 Climbing FlightAware
05:38PM 43.0340 -72.7800 289° West 370 426 36,000  Level FlightAware
05:38PM 43.0550 -72.8690 288° West 370 426 36,000  Level FlightAware
05:39PM 43.0750 -72.9520 288° West 369 425 36,000  Level FlightAware
05:40PM 43.1070 -73.0890 288° West 369 425 36,000  Level FlightAware
05:40PM 43.1260 -73.1670 288° West 369 425 36,000  Level FlightAware
05:41PM 43.1450 -73.2470 288° West 367 422 36,000  Level FlightAware
05:42PM 43.1690 -73.3330 291° West 367 422 36,000  Level FlightAware
05:43PM 43.2000 -73.4400 292° West 366 421 36,000  Level FlightAware
05:43PM 43.2260 -73.5310 291° West 366 421 36,000  Level FlightAware
05:44PM 43.2510 -73.6180 292° West 366 421 36,000  Level FlightAware
05:45PM 43.2820 -73.7250 292° West 366 421 36,000  Level FlightAware
05:46PM 43.3220 -73.8640 292° West 368 423 36,000  Level FlightAware
05:46PM 43.3460 -73.9500 291° West 368 423 36,000  Level FlightAware
05:47PM 43.3710 -74.0370 292° West 371 427 36,000  Level FlightAware
05:48PM 43.4000 -74.1380 292° West 371 427 36,000  Level FlightAware
05:48PM 43.4230 -74.2210 291° West 372 428 36,000  Level FlightAware
05:49PM 43.4470 -74.3080 291° West 373 429 36,000  Level FlightAware
05:50PM 43.4760 -74.4100 291° West 374 430 36,000  Level FlightAware
05:51PM 43.5050 -74.5150 291° West 374 430 36,000  Level FlightAware
05:51PM 43.5280 -74.6010 290° West 374 430 36,000  Level FlightAware
05:52PM 43.5540 -74.6930 291° West 374 430 36,000  Level FlightAware
05:53PM 43.5810 -74.7920 291° West 373 429 36,000  Level FlightAware
05:53PM 43.6050 -74.8810 290° West 371 427 36,000  Level FlightAware
05:54PM 43.6300 -74.9700 291° West 371 427 36,000  Level FlightAware
05:55PM 43.6500 -75.0450 290° West 374 430 36,000  Level FlightAware
05:55PM 43.6780 -75.1460 291° West 375 432 36,000  Level FlightAware
05:56PM 43.7050 -75.2530 289° West 371 427 36,000  Level FlightAware
05:57PM 43.7030 -75.3480 268° West 369 425 36,000  Level FlightAware
05:57PM 43.6950 -75.4410 263° West 369 425 36,000  Level FlightAware
05:58PM 43.6850 -75.5470 263° West 370 426 36,000  Level FlightAware
05:59PM 43.6770 -75.6420 263° West 371 427 36,000  Level FlightAware
06:00PM 43.6670 -75.7460 262° West 370 426 36,000  Level FlightAware
06:00PM 43.6590 -75.8370 263° West 371 427 36,000  Level FlightAware
06:01PM 43.6500 -75.9310 262° West 371 427 36,000  Level FlightAware
06:02PM 43.6340 -76.0990 263° West 372 428 36,000  Level FlightAware
06:03PM 43.6250 -76.2000 263° West 372 428 36,000  Level FlightAware
06:04PM 43.6190 -76.2920 265° West 374 430 36,000  Level FlightAware
06:04PM 43.6130 -76.4060 266° West 378 435 36,000  Level FlightAware
06:05PM 43.6080 -76.4970 266° West 380 437 36,000  Level FlightAware
06:06PM 43.6020 -76.6060 266° West 380 437 36,000  Level FlightAware
06:06PM 43.5960 -76.7070 265° West 377 434 36,000  Level FlightAware
06:07PM 43.5910 -76.8030 266° West 376 433 36,000  Level FlightAware
06:08PM 43.5840 -76.9060 265° West 375 432 36,000  Level FlightAware
06:08PM 43.5790 -77.0010 266° West 373 429 36,000  Level FlightAware
06:09PM 43.5720 -77.1120 265° West 372 428 36,000  Level FlightAware
06:10PM 43.5660 -77.2020 265° West 372 428 36,000  Level FlightAware
06:11PM 43.5600 -77.2960 265° West 373 429 36,000  Level FlightAware
06:11PM 43.5530 -77.4060 265° West 375 432 36,000  Level FlightAware
06:12PM 43.5470 -77.5010 265° West 375 432 36,000  Level FlightAware
06:13PM 43.5410 -77.5940 265° West 374 430 36,000  Level FlightAware
06:13PM 43.5340 -77.7020 265° West 374 430 36,000  Level FlightAware
06:14PM 43.5280 -77.7960 265° West 373 429 36,000  Level FlightAware
06:15PM 43.5210 -77.9030 265° West 372 428 36,000  Level FlightAware
06:15PM 43.5140 -77.9980 264° West 368 423 36,000  Level FlightAware
06:16PM 43.5070 -78.0910 264° West 367 422 36,000  Level FlightAware
06:17PM 43.5000 -78.1950 265° West 365 420 36,000  Level FlightAware
06:18PM 43.4940 -78.2840 265° West 364 419 36,000  Level FlightAware
06:18PM 43.4860 -78.3900 264° West 365 420 36,000  Level FlightAware
06:19PM 43.4790 -78.4830 264° West 367 422 36,000  Level FlightAware
06:20PM 43.4710 -78.5890 264° West 365 420 36,000  Level FlightAware
06:20PM 43.4640 -78.6810 264° West 367 422 36,000  Level FlightAware
06:21PM 43.4580 -78.7720 265° West 367 422 36,000  Level FlightAware
06:22PM 43.4520 -78.8420 263° West 367 422 36,000  Level FlightAware
06:22PM 43.4430 -78.9570 264° West 369 425 36,000  Level FlightAware
06:23PM 43.4360 -79.0520 264° West 370 426 36,000  Level FlightAware
06:24PM 43.4280 -79.1530 264° West 370 426 36,000  Level FlightAware
06:24PM 43.4200 -79.2510 264° West 371 427 36,000  Level FlightAware
06:25PM 43.4120 -79.3510 264° West 371 427 36,000  Level FlightAware
06:26PM 43.4040 -79.4460 263° West 371 427 36,000  Level FlightAware
06:27PM 43.3950 -79.5520 263° West 369 425 36,000  Level FlightAware
06:27PM 43.3880 -79.6450 264° West 370 426 36,000  Level FlightAware
06:28PM 43.3780 -79.7520 263° West 372 428 36,000  Level FlightAware
06:29PM 43.3700 -79.8470 263° West 372 428 36,000  Level FlightAware
06:29PM 43.3620 -79.9410 263° West 372 428 36,000  Level FlightAware
06:30PM 43.3530 -80.0470 263° West 372 428 36,000  Level FlightAware
06:31PM 43.3450 -80.1360 263° West 372 428 36,000  Level FlightAware
06:32PM 43.3350 -80.2460 263° West 372 428 36,000  Level FlightAware
06:32PM 43.3270 -80.3340 263° West 372 428 36,000  Level FlightAware
06:33PM 43.3180 -80.4340 263° West 373 429 36,000  Level FlightAware
06:34PM 43.3090 -80.5360 263° West 373 429 36,000  Level FlightAware
06:34PM 43.2990 -80.6430 263° West 372 428 36,000  Level FlightAware
06:35PM 43.2900 -80.7380 263° West 373 429 36,000  Level FlightAware
06:36PM 43.2810 -80.8320 263° West 373 429 36,000  Level FlightAware
06:36PM 43.2710 -80.9370 263° West 375 432 36,000  Level FlightAware
06:37PM 43.2620 -81.0310 263° West 377 434 36,000  Level FlightAware
06:38PM 43.2520 -81.1380 263° West 377 434 36,000  Level FlightAware
06:39PM 43.2430 -81.2300 262° West 377 434 36,000  Level FlightAware
06:39PM 43.2330 -81.3270 262° West 377 434 36,000  Level FlightAware
06:40PM 43.2240 -81.4260 263° West 378 435 36,000  Level FlightAware
06:41PM 43.2140 -81.5230 262° West 378 435 36,000  Level FlightAware
06:41PM 43.2050 -81.6120 262° West 379 436 36,000  Level FlightAware
06:42PM 43.1930 -81.7240 262° West 379 436 36,000  Level FlightAware
06:43PM 43.1830 -81.8240 262° West 380 437 36,000  Level FlightAware
06:43PM 43.1730 -81.9200 262° West 381 438 36,000  Level FlightAware
06:44PM 43.1630 -82.0170 262° West 380 437 36,000  Level FlightAware
06:45PM 43.1520 -82.1230 262° West 379 436 36,000  Level FlightAware
06:46PM 43.1360 -82.2680 261° West 379 436 36,000  Level FlightAware
06:47PM 43.1250 -82.3680 261° West 378 435 36,000  Level FlightAware
06:47PM 43.1120 -82.4880 262° West 377 434 36,000  Level FlightAware
06:48PM 43.1010 -82.5850 261° West 375 432 36,000 -240 Level FlightAware
06:49PM 43.0920 -82.6730 262° West 373 429 35,700 -660 Descending FlightAware
06:50PM 43.0790 -82.7900 261° West 377 434 35,100 -720 Descending FlightAware
06:50PM 43.0720 -82.8500 261° West 379 436 34,800 -720 Descending FlightAware
06:51PM 43.0580 -82.9690 261° West 385 443 34,200 -900 Descending FlightAware
06:52PM 43.0460 -83.0770 261° West 385 443 33,500 -900 Descending FlightAware
06:52PM 43.0350 -83.1740 261° West 385 443 33,000 -840 Descending FlightAware
06:53PM 43.0200 -83.2970 261° West 392 451 32,300 -840 Descending FlightAware
06:54PM 43.0140 -83.3550 262° West 391 450 32,000 -240 Descending FlightAware
06:54PM 43.0000 -83.4700 261° West 389 448 32,000  Level FlightAware
06:55PM 42.9870 -83.5800 261° West 387 445 32,000  Level FlightAware
06:56PM 42.9720 -83.7000 260° West 386 444 32,000  Level FlightAware
06:57PM 42.9610 -83.8100 262° West 386 444 32,000  Level FlightAware
06:57PM 42.9520 -83.9050 263° West 386 444 32,000  Level FlightAware
06:58PM 42.9410 -84.0130 262° West 388 447 32,000  Level FlightAware
06:59PM 42.9330 -84.1020 263° West 388 447 32,000  Level FlightAware
06:59PM 42.9220 -84.2100 262° West 389 448 32,000  Level FlightAware
07:00PM 42.9160 -84.2640 261° West 389 448 32,000  Level FlightAware
07:01PM 42.9020 -84.4050 262° West 390 449 32,000  Level FlightAware
07:01PM 42.8910 -84.5150 262° West 391 450 32,000  Level FlightAware
07:02PM 42.8810 -84.6150 262° West 391 450 32,000  Level FlightAware
07:03PM 42.8720 -84.7050 262° West 392 451 32,000  Level FlightAware
07:03PM 42.8600 -84.8190 262° West 398 458 32,000  Level FlightAware
07:04PM 42.8490 -84.9190 262° West 403 464 32,000  Level FlightAware
07:05PM 42.8370 -85.0320 262° West 405 466 32,000  Level FlightAware
07:06PM 42.8260 -85.1360 262° West 404 465 32,000  Level FlightAware
07:06PM 42.8150 -85.2360 262° West 401 461 32,000  Level FlightAware
07:07PM 42.8030 -85.3460 262° West 401 461 32,000  Level FlightAware
07:08PM 42.7920 -85.4450 261° West 401 461 32,000 -240 Level FlightAware
07:08PM 42.7760 -85.5590 259° West 395 455 31,700 -1,320 Descending FlightAware
07:09PM 42.7590 -85.6500 256° West 390 449 30,200 -2,400 Descending FlightAware
07:10PM 42.7410 -85.7490 256° West 400 460 28,500 -2,640 Descending FlightAware
07:10PM 42.7220 -85.8560 256° West 396 456 26,500 -2,700 Descending FlightAware
07:11PM 42.7050 -85.9520 256° West 390 449 24,700 -2,580 Descending FlightAware
07:12PM 42.6850 -86.0620 256° West 378 435 22,900 -2,280 Descending FlightAware
07:13PM 42.6690 -86.1480 256° West 365 420 21,500 -2,100 Descending FlightAware
07:13PM 42.6520 -86.2380 256° West 353 406 20,100 -1,860 Descending FlightAware
07:14PM 42.6350 -86.3290 256° West 334 384 18,900 -1,560 Descending FlightAware
07:15PM 42.6200 -86.4080 256° West 314 361 17,900 -1,620 Descending FlightAware
07:15PM 42.6060 -86.4820 256° West 298 343 16,800 -1,380 Descending FlightAware
07:16PM 42.5910 -86.5630 256° West 287 330 16,000 -1,020 Descending FlightAware
07:17PM 42.5780 -86.6330 256° West 289 333 15,400 -840 Descending FlightAware
07:17PM 42.5660 -86.6980 256° West 288 331 14,900 -900 Descending FlightAware
07:18PM 42.5450 -86.7820 251° West 286 329 14,100 -960 Descending FlightAware
07:19PM 42.5280 -86.8450 250° West 292 336 13,600 -960 Descending FlightAware
07:20PM 42.5050 -86.9320 250° West 298 343 12,800 -960 Descending FlightAware
07:20PM 42.4860 -87.0000 249° West 298 343 12,200 -1,020 Descending FlightAware
07:21PM 42.4670 -87.0710 250° West 296 341 11,500 -1,020 Descending FlightAware
07:22PM 42.4450 -87.1510 250° West 295 339 10,800 -900 Descending FlightAware
07:22PM 42.4280 -87.2100 249° West 295 339 10,300 -600 Descending FlightAware
07:23PM 42.4060 -87.2920 250° West 292 336 10,000 -240 Descending FlightAware
07:24PM 42.3880 -87.3560 249° West 291 335 10,000  Level FlightAware
07:25PM 42.3640 -87.4440 250° West 295 339 10,000  Level FlightAware
07:25PM 42.3450 -87.5130 250° West 293 337 10,000  Level FlightAware
07:26PM 42.3280 -87.5460 235° Southwest 300 345 10,000  Level FlightAware
07:26PM 42.2770 -87.6000 218° Southwest 303 349 10,000  Level FlightAware
07:27PM 42.2370 -87.6420 218° Southwest 298 343 10,000 -120 Level FlightAware
07:28PM 42.2040 -87.6760 217° Southwest 266 306 9,900 -600 Descending FlightAware
07:28PM 42.1780 -87.7040 219° Southwest 250 288 9,400 -1,440 Descending FlightAware
07:28PM 42.1510 -87.7320 218° Southwest 251 289 8,600 -1,740 Descending FlightAware
07:29PM 42.1250 -87.7600 219° Southwest 256 295 7,700 -1,560 Descending FlightAware
07:29PM 42.1010 -87.7850 218° Southwest 255 293 7,200 -1,080 Descending FlightAware
07:30PM 42.0920 -87.8080 242° Southwest 251 289 7,000 -300 Descending FlightAware
07:30PM 42.0920 -87.8490 270° West 250 288 7,000  Level FlightAware
07:30PM 42.0920 -87.8770 270° West 249 287 7,000 60 Level FlightAware
07:31PM 42.0920 -87.9390 270° West 250 288 7,100  Climbing FlightAware
07:32PM 42.0920 -88.0030 270° West 246 283 7,000 -120 Descending FlightAware
07:32PM 42.0920 -88.0280 270° West 240 276 7,000  Level FlightAware
07:32PM 42.0920 -88.0630 270° West 215 247 7,000 -660 Level FlightAware
07:33PM 42.0920 -88.1060 270° West 212 244 6,400 -1,200 Descending FlightAware
07:33PM 42.0920 -88.1230 270° West 214 246 6,100 -1,320 Descending FlightAware
07:34PM 42.0910 -88.1700 268° West 220 253 5,300 -1,200 Descending FlightAware
07:34PM 42.0910 -88.1990 270° West 220 253 4,900 -1,080 Descending FlightAware
07:35PM 42.0910 -88.2390 270° West 220 253 4,400 -900 Descending FlightAware
07:35PM 42.0910 -88.2920 270° West 229 264 4,000 -300 Descending FlightAware
07:36PM 42.0910 -88.3220 270° West 206 237 4,100  Climbing FlightAware
07:36PM 42.0910 -88.3510 270° West 191 220 4,000 -120 Descending FlightAware
07:37PM 42.0910 -88.3900 270° West 181 208 4,000  Level FlightAware
07:37PM 42.0780 -88.4140 234° Southwest 178 205 4,000  Level FlightAware
07:37PM 42.0650 -88.4200 199° South 178 205 4,000  Level FlightAware
07:38PM 42.0490 -88.4280 200° South 174 200 4,000  Level FlightAware
07:38PM 42.0380 -88.4310 191° South 172 198 4,000  Level FlightAware
07:38PM 42.0120 -88.4310 180° South 173 199 4,000  Level FlightAware
07:39PM 42.0050 -88.4270 157° South 171 197 4,000  Level FlightAware
07:39PM 41.9960 -88.4150 135° Southeast 168 193 4,000 120 Level FlightAware
07:39PM 41.9880 -88.3880 112° Southeast 170 196 4,100  Climbing FlightAware
07:40PM 41.9830 -88.3620 104° East 170 196 4,000 -120 Descending FlightAware
07:40PM 41.9830 -88.3180 90° East 166 191 4,000  Level FlightAware
07:41PM 41.9830 -88.2860 90° East 164 189 4,000  Level FlightAware
07:41PM 41.9830 -88.2600 90° East 165 190 4,000  Level FlightAware
07:42PM 41.9830 -88.2290 90° East 166 191 4,000  Level FlightAware
07:42PM 41.9830 -88.2020 90° East 168 193 4,000  Level FlightAware
07:43PM 41.9840 -88.1700 88° East 169 194 4,000  Level FlightAware
07:43PM 41.9840 -88.1440 90° East 169 194 4,000 -480 Level FlightAware
07:44PM 41.9840 -88.1030 90° East 160 184 3,500 -840 Descending FlightAware
07:45PM 41.9840 -88.0700 90° East 146 168 3,000 -1,020 Descending FlightAware
07:45PM 41.9830 -88.0490 94° East 137 158 2,600 -780 Descending FlightAware
07:45PM 41.9840 -88.0210 87° East 135 155 2,300 -600 Descending FlightAware
07:46PM 41.9840 -88.0020 90° East 126 145 2,100 -660 Descending FlightAware
07:46PM 41.9840 -87.9780 90° East 130 150 1,700 -840 Descending FlightAware
07:47PM 41.9840 -87.9500 90° East 140 161 1,200 -900 Descending FlightAware